createdAt,value
2023-05-10T00:00:34.135Z,26.28
2023-05-10T00:01:34.166Z,26.28
2023-05-10T00:02:34.296Z,26.26
2023-05-10T00:03:34.300Z,26.28
2023-05-10T00:04:34.264Z,26.26
2023-05-10T00:05:34.291Z,26.28
2023-05-10T00:06:34.411Z,26.28
2023-05-10T00:07:34.356Z,26.28
2023-05-10T00:08:34.397Z,26.28
2023-05-10T00:09:34.417Z,26.28
2023-05-10T00:10:34.461Z,26.29
2023-05-10T00:11:34.493Z,26.29
2023-05-10T00:12:34.503Z,26.28
2023-05-10T00:13:34.550Z,26.26
2023-05-10T00:14:34.577Z,26.28
2023-05-10T00:15:34.612Z,26.25
2023-05-10T00:16:34.764Z,26.26
2023-05-10T00:17:34.764Z,26.29
2023-05-10T00:18:34.714Z,26.28
2023-05-10T00:19:34.752Z,26.28
2023-05-10T00:20:34.779Z,26.28
2023-05-10T00:21:34.829Z,26.25
2023-05-10T00:22:34.844Z,26.26
2023-05-10T00:23:34.881Z,26.28
2023-05-10T00:24:34.916Z,26.28
2023-05-10T00:25:34.955Z,26.28
2023-05-10T00:26:35.059Z,26.25
2023-05-10T00:27:35.026Z,26.29
2023-05-10T00:28:35.058Z,26.26
2023-05-10T00:29:35.111Z,26.29
2023-05-10T00:30:35.169Z,26.26
2023-05-10T00:31:35.178Z,26.29
2023-05-10T00:32:35.311Z,26.26
2023-05-10T00:33:35.247Z,26.25
2023-05-10T00:34:35.275Z,26.26
2023-05-10T00:35:35.304Z,26.26
2023-05-10T00:36:35.397Z,26.28
2023-05-10T00:37:35.378Z,26.24
2023-05-10T00:38:35.421Z,26.25
2023-05-10T00:39:35.454Z,26.26
2023-05-10T00:40:35.491Z,26.25
2023-05-10T00:41:35.516Z,26.24
2023-05-10T00:42:35.551Z,26.25
2023-05-10T00:43:35.597Z,26.24
2023-05-10T00:44:35.645Z,26.25
2023-05-10T00:45:35.682Z,26.26
2023-05-10T00:46:35.727Z,26.25
2023-05-10T00:47:35.829Z,26.24
2023-05-10T00:48:35.778Z,26.26
2023-05-10T00:49:35.805Z,26.26
2023-05-10T00:50:35.854Z,26.24
2023-05-10T00:51:35.950Z,26.25
2023-05-10T00:52:35.909Z,26.26
2023-05-10T00:53:36.030Z,26.25
2023-05-10T00:54:35.968Z,26.24
2023-05-10T00:55:36.013Z,26.25
2023-05-10T00:56:36.037Z,26.24
2023-05-10T00:57:36.078Z,26.25
2023-05-10T00:58:36.114Z,26.24
2023-05-10T00:59:36.153Z,26.24
2023-05-10T01:00:36.187Z,26.26
2023-05-10T01:01:36.324Z,26.26
2023-05-10T01:02:36.328Z,26.26
2023-05-10T01:03:36.361Z,26.26
2023-05-10T01:04:36.374Z,26.25
2023-05-10T01:05:36.422Z,26.25
2023-05-10T01:06:36.391Z,26.24
2023-05-10T01:07:36.432Z,26.22
2023-05-10T01:08:36.469Z,26.22
2023-05-10T01:09:36.502Z,26.24
2023-05-10T01:10:36.542Z,26.22
2023-05-10T01:11:36.585Z,26.25
2023-05-10T01:12:36.683Z,26.24
2023-05-10T01:13:36.660Z,26.22
2023-05-10T01:14:36.698Z,26.24
2023-05-10T01:15:36.745Z,26.24
2023-05-10T01:16:36.769Z,26.25
2023-05-10T01:17:37.715Z,26.25
2023-05-10T01:18:36.846Z,26.24
2023-05-10T01:19:36.885Z,26.21
2023-05-10T01:20:36.913Z,26.25
2023-05-10T01:21:36.955Z,26.24
2023-05-10T01:22:37.000Z,26.24
2023-05-10T01:23:37.032Z,26.21
2023-05-10T01:24:37.079Z,26.22
2023-05-10T01:25:37.113Z,26.21
2023-05-10T01:26:37.164Z,26.21
2023-05-10T01:27:37.202Z,26.22
2023-05-10T01:28:37.240Z,26.24
2023-05-10T01:29:37.279Z,26.22
2023-05-10T01:30:37.317Z,26.22
2023-05-10T01:31:37.384Z,26.22
2023-05-10T01:32:37.425Z,26.24
2023-05-10T01:33:37.450Z,26.22
2023-05-10T01:34:37.470Z,26.19
2023-05-10T01:35:37.597Z,26.21
2023-05-10T01:36:37.557Z,26.22
2023-05-10T01:37:37.590Z,26.21
2023-05-10T01:38:37.648Z,26.24
2023-05-10T01:39:37.662Z,26.22
2023-05-10T01:40:37.689Z,26.24
2023-05-10T01:41:38.103Z,26.22
2023-05-10T01:42:37.767Z,26.22
2023-05-10T01:43:37.892Z,26.22
2023-05-10T01:44:37.860Z,26.22
2023-05-10T01:45:37.898Z,26.24
2023-05-10T01:46:37.992Z,26.21
2023-05-10T01:47:37.996Z,26.22
2023-05-10T01:48:38.009Z,26.22
2023-05-10T01:49:38.042Z,26.21
2023-05-10T01:50:38.088Z,26.18
2023-05-10T01:51:38.126Z,26.21
2023-05-10T01:52:38.170Z,26.21
2023-05-10T01:53:38.290Z,26.21
2023-05-10T01:54:38.248Z,26.19
2023-05-10T01:55:38.286Z,26.21
2023-05-10T01:56:38.330Z,26.24
2023-05-10T01:57:38.377Z,26.21
2023-05-10T01:58:38.419Z,26.19
2023-05-10T01:59:38.465Z,26.19
2023-05-10T02:00:38.537Z,26.18
2023-05-10T02:01:38.549Z,26.21
2023-05-10T02:02:38.598Z,26.21
2023-05-10T02:03:38.670Z,26.18
2023-05-10T02:04:38.670Z,26.19
2023-05-10T02:05:38.707Z,26.21
2023-05-10T02:06:38.750Z,26.19
2023-05-10T02:07:38.794Z,26.19
2023-05-10T02:08:38.840Z,26.21
2023-05-10T02:09:38.899Z,26.19
2023-05-10T02:10:38.918Z,26.22
2023-05-10T02:11:38.954Z,26.19
2023-05-10T02:12:38.990Z,26.21
2023-05-10T02:13:39.034Z,26.19
2023-05-10T02:14:39.083Z,26.19
2023-05-10T02:15:39.124Z,26.18
2023-05-10T02:16:39.210Z,26.19
2023-05-10T02:17:39.259Z,26.19
2023-05-10T02:18:39.242Z,26.18
2023-05-10T02:19:39.284Z,26.18
2023-05-10T02:20:39.343Z,26.18
2023-05-10T02:21:39.372Z,26.19
2023-05-10T02:22:39.410Z,26.19
2023-05-10T02:23:39.452Z,26.17
2023-05-10T02:24:39.489Z,26.18
2023-05-10T02:25:39.528Z,26.18
2023-05-10T02:26:39.566Z,26.19
2023-05-10T02:27:39.622Z,26.18
2023-05-10T02:28:39.769Z,26.18
2023-05-10T02:29:40.610Z,26.19
2023-05-10T02:30:39.733Z,26.18
2023-05-10T02:31:39.831Z,26.18
2023-05-10T02:32:39.841Z,26.19
2023-05-10T02:33:40.126Z,26.18
2023-05-10T02:34:39.885Z,26.18
2023-05-10T02:35:40.615Z,26.17
2023-05-10T02:36:39.972Z,26.18
2023-05-10T02:37:40.007Z,26.18
2023-05-10T02:38:40.068Z,26.17
2023-05-10T02:39:40.090Z,26.17
2023-05-10T02:40:40.146Z,26.18
2023-05-10T02:41:40.186Z,26.19
2023-05-10T02:42:40.224Z,26.18
2023-05-10T02:43:40.269Z,26.18
2023-05-10T02:44:40.392Z,26.15
2023-05-10T02:45:40.436Z,26.15
2023-05-10T02:46:40.393Z,26.17
2023-05-10T02:47:40.498Z,26.14
2023-05-10T02:48:40.558Z,26.15
2023-05-10T02:49:40.536Z,26.15
2023-05-10T02:50:40.574Z,26.18
2023-05-10T02:51:40.628Z,26.15
2023-05-10T02:52:40.681Z,26.17
2023-05-10T02:53:40.726Z,26.12
2023-05-10T02:54:40.747Z,26.12
2023-05-10T02:55:41.636Z,26.14
2023-05-10T02:56:40.835Z,26.15
2023-05-10T02:57:40.880Z,26.14
2023-05-10T02:58:40.921Z,26.17
2023-05-10T02:59:40.969Z,26.15
2023-05-10T03:00:41.003Z,26.17
2023-05-10T03:01:41.070Z,26.17
2023-05-10T03:02:41.122Z,26.12
2023-05-10T03:03:41.145Z,26.14
2023-05-10T03:04:41.221Z,26.17
2023-05-10T03:05:41.229Z,26.14
2023-05-10T03:06:42.132Z,26.15
2023-05-10T03:07:41.302Z,26.17
2023-05-10T03:08:41.352Z,26.15
2023-05-10T03:09:41.398Z,26.14
2023-05-10T03:10:41.441Z,26.15
2023-05-10T03:11:41.488Z,26.14
2023-05-10T03:12:41.609Z,26.14
2023-05-10T03:13:41.573Z,26.14
2023-05-10T03:14:41.622Z,26.15
2023-05-10T03:15:42.658Z,26.14
2023-05-10T03:16:44.178Z,26.15
2023-05-10T03:17:41.712Z,26.14
2023-05-10T03:18:41.678Z,26.14
2023-05-10T03:19:41.673Z,26.15
2023-05-10T03:20:41.655Z,26.14
2023-05-10T03:21:41.644Z,26.14
2023-05-10T03:22:41.633Z,26.15
2023-05-10T03:23:41.687Z,26.11
2023-05-10T03:24:41.650Z,26.15
2023-05-10T03:25:41.611Z,26.12
2023-05-10T03:26:41.604Z,26.11
2023-05-10T03:27:41.604Z,26.14
2023-05-10T03:28:41.598Z,26.14
2023-05-10T03:29:41.603Z,26.12
2023-05-10T03:30:41.575Z,26.14
2023-05-10T03:31:41.612Z,26.14
2023-05-10T03:32:41.575Z,26.12
2023-05-10T03:33:41.552Z,26.12
2023-05-10T03:34:41.523Z,26.14
2023-05-10T03:35:41.524Z,26.12
2023-05-10T03:36:41.503Z,26.11
2023-05-10T03:37:42.150Z,26.11
2023-05-10T03:38:41.486Z,26.14
2023-05-10T03:39:41.481Z,26.14
2023-05-10T03:40:41.456Z,26.11
2023-05-10T03:41:41.456Z,26.12
2023-05-10T03:42:41.447Z,26.11
2023-05-10T03:43:41.516Z,26.09
2023-05-10T03:44:41.426Z,26.12
2023-05-10T03:45:41.421Z,26.11
2023-05-10T03:46:41.453Z,26.11
2023-05-10T03:47:41.417Z,26.12
2023-05-10T03:48:41.406Z,26.11
2023-05-10T03:49:41.381Z,26.11
2023-05-10T03:50:41.369Z,26.09
2023-05-10T03:51:41.368Z,26.11
2023-05-10T03:52:41.339Z,26.12
2023-05-10T03:53:41.326Z,26.12
2023-05-10T03:54:41.655Z,26.12
2023-05-10T03:55:41.321Z,26.12
2023-05-10T03:56:41.322Z,26.09
2023-05-10T03:57:41.331Z,26.11
2023-05-10T03:58:41.376Z,26.12
2023-05-10T03:59:41.398Z,26.12
2023-05-10T04:00:41.458Z,26.12
2023-05-10T04:01:41.548Z,26.09
2023-05-10T04:02:41.699Z,26.11
2023-05-10T04:03:41.737Z,26.09
2023-05-10T04:04:41.660Z,26.11
2023-05-10T04:05:41.696Z,26.12
2023-05-10T04:06:41.767Z,26.08
2023-05-10T04:07:41.816Z,26.12
2023-05-10T04:08:41.850Z,26.09
2023-05-10T04:09:41.924Z,26.09
2023-05-10T04:10:41.957Z,26.11
2023-05-10T04:11:42.067Z,26.11
2023-05-10T04:12:42.086Z,26.09
2023-05-10T04:13:42.121Z,26.09
2023-05-10T04:14:42.224Z,26.08
2023-05-10T04:15:42.170Z,26.09
2023-05-10T04:16:42.275Z,26.09
2023-05-10T04:17:42.231Z,26.08
2023-05-10T04:18:42.292Z,26.11
2023-05-10T04:19:42.687Z,26.11
2023-05-10T04:20:42.242Z,26.11
2023-05-10T04:21:42.269Z,26.07
2023-05-10T04:22:42.282Z,26.08
2023-05-10T04:23:43.217Z,26.09
2023-05-10T04:24:42.316Z,26.09
2023-05-10T04:25:42.337Z,26.08
2023-05-10T04:26:42.364Z,26.08
2023-05-10T04:27:42.389Z,26.11
2023-05-10T04:28:42.410Z,26.08
2023-05-10T04:29:42.431Z,26.09
2023-05-10T04:30:42.557Z,26.08
2023-05-10T04:31:42.483Z,26.08
2023-05-10T04:32:42.562Z,26.09
2023-05-10T04:33:42.516Z,26.08
2023-05-10T04:34:42.593Z,26.08
2023-05-10T04:35:42.588Z,26.08
2023-05-10T04:36:42.581Z,26.08
2023-05-10T04:37:42.587Z,26.09
2023-05-10T04:38:42.608Z,26.07
2023-05-10T04:39:42.659Z,26.09
2023-05-10T04:40:42.649Z,26.08
2023-05-10T04:41:42.664Z,26.08
2023-05-10T04:42:42.742Z,26.09
2023-05-10T04:43:42.696Z,26.09
2023-05-10T04:44:42.705Z,26.07
2023-05-10T04:45:42.769Z,26.11
2023-05-10T04:46:42.753Z,26.08
2023-05-10T04:47:42.786Z,26.07
2023-05-10T04:48:42.782Z,26.08
2023-05-10T04:49:42.810Z,26.05
2023-05-10T04:50:42.818Z,26.08
2023-05-10T04:51:42.825Z,26.11
2023-05-10T04:52:42.852Z,26.05
2023-05-10T04:53:46.491Z,26.05
2023-05-10T04:54:43.859Z,26.07
2023-05-10T04:55:42.845Z,26.08
2023-05-10T04:56:42.842Z,26.07
2023-05-10T04:57:42.856Z,26.07
2023-05-10T04:58:42.829Z,26.08
2023-05-10T04:59:42.848Z,26.05
2023-05-10T05:00:42.845Z,26.07
2023-05-10T05:01:42.820Z,26.07
2023-05-10T05:02:42.910Z,26.07
2023-05-10T05:03:42.884Z,26.08
2023-05-10T05:04:42.785Z,26.08
2023-05-10T05:05:42.775Z,26.05
2023-05-10T05:06:42.766Z,26.07
2023-05-10T05:07:42.757Z,26.05
2023-05-10T05:08:42.745Z,26.08
2023-05-10T05:09:42.749Z,26.07
2023-05-10T05:10:42.734Z,26.05
2023-05-10T05:11:42.732Z,26.07
2023-05-10T05:12:42.787Z,26.07
2023-05-10T05:13:42.715Z,26.07
2023-05-10T05:14:42.701Z,26.08
2023-05-10T05:15:42.686Z,26.07
2023-05-10T05:16:42.770Z,26.07
2023-05-10T05:17:42.810Z,26.08
2023-05-10T05:18:42.657Z,26.07
2023-05-10T05:19:42.651Z,26.08
2023-05-10T05:20:42.626Z,26.05
2023-05-10T05:21:43.184Z,26.05
2023-05-10T05:22:42.618Z,26.07
2023-05-10T05:23:42.604Z,26.05
2023-05-10T05:24:42.603Z,26.07
2023-05-10T05:25:42.615Z,26.07
2023-05-10T05:26:42.591Z,26.02
2023-05-10T05:27:42.585Z,26.01
2023-05-10T05:28:42.580Z,26.04
2023-05-10T05:29:42.590Z,26.08
2023-05-10T05:30:43.182Z,26.07
2023-05-10T05:31:44.216Z,26.08
2023-05-10T05:32:42.590Z,26.12
2023-05-10T05:33:42.558Z,26.18
2023-05-10T05:34:42.597Z,26.26
2023-05-10T05:35:42.537Z,26.28
2023-05-10T05:36:42.533Z,26.35
2023-05-10T05:37:42.597Z,26.38
2023-05-10T05:38:42.627Z,26.40
2023-05-10T05:39:42.682Z,26.43
2023-05-10T05:40:42.714Z,26.45
2023-05-10T05:41:42.763Z,26.46
2023-05-10T05:42:42.815Z,26.47
2023-05-10T05:43:42.847Z,26.53
2023-05-10T05:44:42.880Z,26.54
2023-05-10T05:45:43.786Z,26.56
2023-05-10T05:46:43.693Z,26.62
2023-05-10T05:47:42.972Z,26.64
2023-05-10T05:48:42.983Z,26.66
2023-05-10T05:49:43.011Z,26.70
2023-05-10T05:50:43.030Z,26.74
2023-05-10T05:51:43.060Z,26.73
2023-05-10T05:52:43.087Z,26.76
2023-05-10T05:53:43.111Z,26.76
2023-05-10T05:54:43.120Z,26.79
2023-05-10T05:55:43.138Z,26.79
2023-05-10T05:56:43.154Z,26.84
2023-05-10T05:57:43.197Z,26.81
2023-05-10T05:58:43.200Z,26.83
2023-05-10T05:59:43.203Z,26.84
2023-05-10T06:00:43.230Z,26.83
2023-05-10T06:01:43.277Z,26.86
2023-05-10T06:02:43.374Z,26.84
2023-05-10T06:03:43.295Z,26.86
2023-05-10T06:04:44.880Z,26.87
2023-05-10T06:05:43.276Z,26.86
2023-05-10T06:06:43.276Z,26.89
2023-05-10T06:07:43.299Z,26.89
2023-05-10T06:08:43.288Z,26.90
2023-05-10T06:09:43.289Z,26.89
2023-05-10T06:10:43.292Z,26.90
2023-05-10T06:11:43.285Z,26.90
2023-05-10T06:12:43.281Z,26.91
2023-05-10T06:13:43.308Z,26.89
2023-05-10T06:14:43.281Z,26.91
2023-05-10T06:15:43.265Z,26.91
2023-05-10T06:16:43.293Z,26.93
2023-05-10T06:17:43.360Z,26.95
2023-05-10T06:18:43.261Z,26.94
2023-05-10T06:19:43.293Z,26.93
2023-05-10T06:20:43.242Z,26.94
2023-05-10T06:21:44.201Z,26.94
2023-05-10T06:22:43.216Z,26.91
2023-05-10T06:23:43.215Z,26.89
2023-05-10T06:24:43.237Z,26.89
2023-05-10T06:25:43.285Z,26.90
2023-05-10T06:26:43.314Z,26.91
2023-05-10T06:27:43.357Z,26.79
2023-05-10T06:28:43.381Z,26.38
2023-05-10T06:29:43.439Z,25.98
2023-05-10T06:30:43.459Z,25.52
2023-05-10T06:31:43.681Z,25.17
2023-05-10T06:32:43.543Z,24.84
2023-05-10T06:33:43.625Z,24.50
2023-05-10T06:34:43.682Z,24.25
2023-05-10T06:35:44.713Z,24.08
2023-05-10T06:36:43.792Z,24.01
2023-05-10T06:37:43.925Z,23.98
2023-05-10T06:38:43.927Z,23.95
2023-05-10T06:39:43.989Z,23.98
2023-05-10T06:40:44.055Z,24.08
2023-05-10T06:41:44.071Z,24.19
2023-05-10T06:42:44.092Z,24.33
2023-05-10T06:43:44.156Z,24.47
2023-05-10T06:44:44.200Z,24.63
2023-05-10T06:45:44.213Z,24.77
2023-05-10T06:46:44.326Z,24.91
2023-05-10T06:47:44.296Z,25.05
2023-05-10T06:48:44.323Z,25.22
2023-05-10T06:49:44.377Z,25.35
2023-05-10T06:50:44.437Z,25.45
2023-05-10T06:51:44.466Z,25.56
2023-05-10T06:52:44.485Z,25.69
2023-05-10T06:53:44.469Z,25.73
2023-05-10T06:54:44.490Z,25.80
2023-05-10T06:55:44.547Z,25.74
2023-05-10T06:56:44.582Z,25.63
2023-05-10T06:57:44.599Z,25.50
2023-05-10T06:58:44.672Z,25.35
2023-05-10T06:59:45.294Z,25.30
2023-05-10T07:00:44.900Z,25.25
2023-05-10T07:01:44.869Z,25.21
2023-05-10T07:02:44.897Z,25.22
2023-05-10T07:03:44.957Z,25.19
2023-05-10T07:04:45.047Z,25.25
2023-05-10T07:05:45.018Z,25.23
2023-05-10T07:06:45.014Z,25.26
2023-05-10T07:07:45.038Z,25.30
2023-05-10T07:08:45.017Z,25.35
2023-05-10T07:09:45.052Z,25.37
2023-05-10T07:10:45.097Z,25.40
2023-05-10T07:11:45.159Z,25.43
2023-05-10T07:12:45.410Z,25.47
2023-05-10T07:13:45.330Z,25.50
2023-05-10T07:14:45.349Z,25.52
2023-05-10T07:15:45.409Z,25.53
2023-05-10T07:16:45.711Z,25.53
2023-05-10T07:17:46.090Z,25.52
2023-05-10T07:18:45.544Z,25.57
2023-05-10T07:19:45.621Z,25.59
2023-05-10T07:20:46.318Z,25.62
2023-05-10T07:21:45.765Z,25.70
2023-05-10T07:22:45.794Z,25.70
2023-05-10T07:23:45.848Z,25.77
2023-05-10T07:24:45.893Z,25.81
2023-05-10T07:25:45.919Z,25.87
2023-05-10T07:26:45.960Z,25.88
2023-05-10T07:27:45.987Z,25.90
2023-05-10T07:28:46.729Z,25.91
2023-05-10T07:29:46.081Z,25.95
2023-05-10T07:30:46.103Z,26.01
2023-05-10T07:31:46.197Z,25.98
2023-05-10T07:32:46.208Z,26.00
2023-05-10T07:33:46.191Z,26.02
2023-05-10T07:34:46.233Z,26.01
2023-05-10T07:35:46.257Z,26.02
2023-05-10T07:36:46.278Z,26.04
2023-05-10T07:37:46.293Z,26.02
2023-05-10T07:38:46.328Z,26.07
2023-05-10T07:39:46.359Z,26.07
2023-05-10T07:40:46.377Z,26.08
2023-05-10T07:41:46.397Z,26.09
2023-05-10T07:42:46.422Z,26.12
2023-05-10T07:43:46.513Z,26.14
2023-05-10T07:44:46.441Z,26.17
2023-05-10T07:45:46.503Z,26.17
2023-05-10T07:46:46.485Z,26.19
2023-05-10T07:47:46.498Z,26.19
2023-05-10T07:48:46.499Z,26.19
2023-05-10T07:49:46.516Z,26.19
2023-05-10T07:50:46.540Z,26.24
2023-05-10T07:51:46.618Z,26.24
2023-05-10T07:52:46.605Z,26.25
2023-05-10T07:53:46.562Z,26.26
2023-05-10T07:54:46.584Z,26.29
2023-05-10T07:55:46.603Z,26.28
2023-05-10T07:56:46.591Z,26.29
2023-05-10T07:57:46.608Z,26.29
2023-05-10T07:58:46.610Z,26.29
2023-05-10T07:59:46.764Z,26.28
2023-05-10T08:00:46.609Z,26.29
2023-05-10T08:01:46.620Z,26.34
2023-05-10T08:02:47.722Z,26.34
2023-05-10T08:03:46.693Z,26.31
2023-05-10T08:04:46.675Z,26.29
2023-05-10T08:05:46.581Z,26.28
2023-05-10T08:06:46.583Z,26.25
2023-05-10T08:07:46.581Z,26.25
2023-05-10T08:08:46.590Z,26.25
2023-05-10T08:09:46.580Z,26.22
2023-05-10T08:10:46.585Z,26.21
2023-05-10T08:11:46.566Z,26.17
2023-05-10T08:12:46.553Z,26.17
2023-05-10T08:13:46.562Z,26.12
2023-05-10T08:14:46.550Z,26.11
2023-05-10T08:15:46.572Z,26.08
2023-05-10T08:16:46.531Z,26.05
2023-05-10T08:17:46.562Z,25.92
2023-05-10T08:18:46.651Z,25.83
2023-05-10T08:19:46.779Z,25.69
2023-05-10T08:20:46.654Z,25.56
2023-05-10T08:21:46.669Z,25.52
2023-05-10T08:22:47.019Z,25.49
2023-05-10T08:23:46.838Z,25.49
2023-05-10T08:24:46.838Z,25.49
2023-05-10T08:25:46.891Z,25.53
2023-05-10T08:26:46.960Z,25.57
2023-05-10T08:27:47.012Z,25.59
2023-05-10T08:28:47.087Z,25.62
2023-05-10T08:29:50.411Z,25.70
2023-05-10T08:30:47.145Z,25.76
2023-05-10T08:31:47.279Z,25.80
2023-05-10T08:32:47.259Z,25.88
2023-05-10T08:33:47.158Z,25.94
2023-05-10T08:34:47.749Z,26.04
2023-05-10T08:35:47.146Z,26.11
2023-05-10T08:36:47.123Z,26.18
2023-05-10T08:37:47.188Z,26.24
2023-05-10T08:38:47.182Z,26.28
2023-05-10T08:39:47.161Z,26.32
2023-05-10T08:40:47.123Z,26.38
2023-05-10T08:41:47.108Z,26.38
2023-05-10T08:42:47.105Z,26.42
2023-05-10T08:43:47.126Z,26.46
2023-05-10T08:44:49.352Z,26.49
2023-05-10T08:45:47.248Z,26.53
2023-05-10T08:46:47.344Z,26.56
2023-05-10T08:47:47.373Z,26.56
2023-05-10T08:48:47.461Z,26.62
2023-05-10T08:49:47.432Z,26.62
2023-05-10T08:50:47.505Z,26.66
2023-05-10T08:51:47.544Z,26.69
2023-05-10T08:52:47.605Z,26.72
2023-05-10T08:53:47.666Z,26.70
2023-05-10T08:54:47.713Z,26.73
2023-05-10T08:55:47.859Z,26.74
2023-05-10T08:56:49.750Z,26.79
2023-05-10T08:57:47.889Z,26.79
2023-05-10T08:58:48.002Z,26.79
2023-05-10T08:59:47.982Z,26.83
2023-05-10T09:00:48.049Z,26.81
2023-05-10T09:01:48.075Z,26.84
2023-05-10T09:02:48.149Z,26.83
2023-05-10T09:03:48.252Z,26.84
2023-05-10T09:04:48.281Z,26.86
2023-05-10T09:05:48.283Z,26.84
2023-05-10T09:06:48.323Z,26.87
2023-05-10T09:07:48.368Z,26.89
2023-05-10T09:08:48.430Z,26.93
2023-05-10T09:09:48.464Z,26.94
2023-05-10T09:10:48.594Z,26.93
2023-05-10T09:11:48.551Z,26.91
2023-05-10T09:12:48.657Z,26.94
2023-05-10T09:13:48.620Z,26.93
2023-05-10T09:14:48.657Z,26.97
2023-05-10T09:15:48.708Z,26.97
2023-05-10T09:16:48.830Z,26.98
2023-05-10T09:17:48.854Z,26.94
2023-05-10T09:18:48.853Z,26.94
2023-05-10T09:19:48.916Z,26.91
2023-05-10T09:20:48.953Z,26.90
2023-05-10T09:21:49.000Z,26.84
2023-05-10T09:22:49.061Z,26.86
2023-05-10T09:23:49.106Z,26.84
2023-05-10T09:24:49.159Z,26.86
2023-05-10T09:25:49.217Z,26.84
2023-05-10T09:26:49.439Z,26.87
2023-05-10T09:27:49.344Z,26.84
2023-05-10T09:28:49.365Z,26.83
2023-05-10T09:29:50.277Z,26.86
2023-05-10T09:30:49.503Z,26.83
2023-05-10T09:31:50.268Z,26.81
2023-05-10T09:32:49.637Z,26.84
2023-05-10T09:33:49.621Z,26.80
2023-05-10T09:34:49.684Z,26.80
2023-05-10T09:35:49.717Z,26.80
2023-05-10T09:36:49.768Z,26.80
2023-05-10T09:37:49.824Z,26.77
2023-05-10T09:38:49.889Z,26.81
2023-05-10T09:39:49.929Z,26.76
2023-05-10T09:40:49.989Z,26.77
2023-05-10T09:41:50.032Z,26.79
2023-05-10T09:42:50.097Z,26.77
2023-05-10T09:43:50.163Z,26.73
2023-05-10T09:44:50.215Z,26.76
2023-05-10T09:45:50.271Z,26.76
2023-05-10T09:46:50.321Z,26.74
2023-05-10T09:47:50.432Z,26.72
2023-05-10T09:48:50.436Z,26.70
2023-05-10T09:49:50.495Z,26.70
2023-05-10T09:50:50.554Z,26.72
2023-05-10T09:51:50.706Z,26.70
2023-05-10T09:52:51.207Z,26.69
2023-05-10T09:53:50.719Z,26.69
2023-05-10T09:54:51.286Z,26.70
2023-05-10T09:55:50.835Z,26.70
2023-05-10T09:56:50.903Z,26.66
2023-05-10T09:57:50.964Z,26.66
2023-05-10T09:58:50.999Z,26.66
2023-05-10T09:59:51.070Z,26.69
2023-05-10T10:00:51.128Z,26.66
2023-05-10T10:01:51.238Z,26.66
2023-05-10T10:02:51.818Z,26.64
2023-05-10T10:03:51.305Z,26.64
2023-05-10T10:04:51.413Z,26.66
2023-05-10T10:05:51.426Z,26.63
2023-05-10T10:06:51.468Z,26.63
2023-05-10T10:07:51.511Z,26.62
2023-05-10T10:08:51.573Z,26.63
2023-05-10T10:09:52.294Z,26.62
2023-05-10T10:10:51.717Z,26.63
2023-05-10T10:11:51.748Z,26.64
2023-05-10T10:12:51.804Z,26.62
2023-05-10T10:13:52.800Z,26.62
2023-05-10T10:14:51.934Z,26.60
2023-05-10T10:15:52.184Z,26.62
2023-05-10T10:17:05.491Z,26.62
2023-05-10T10:17:53.165Z,26.62
2023-05-10T10:18:52.097Z,26.60
2023-05-10T10:19:52.027Z,26.62
2023-05-10T10:20:52.012Z,26.60
2023-05-10T10:21:52.010Z,26.57
2023-05-10T10:22:52.005Z,26.62
2023-05-10T10:23:52.003Z,26.59
2023-05-10T10:24:51.985Z,26.57
2023-05-10T10:25:51.981Z,26.60
2023-05-10T10:26:52.032Z,26.57
2023-05-10T10:27:52.167Z,26.62
2023-05-10T10:28:52.130Z,26.59
2023-05-10T10:29:52.174Z,26.60
2023-05-10T10:30:52.237Z,26.60
2023-05-10T10:31:52.329Z,26.57
2023-05-10T10:32:52.475Z,26.60
2023-05-10T10:33:52.379Z,26.59
2023-05-10T10:34:52.432Z,26.59
2023-05-10T10:35:52.474Z,26.59
2023-05-10T10:36:52.502Z,26.57
2023-05-10T10:37:52.645Z,26.60
2023-05-10T10:38:52.597Z,26.59
2023-05-10T10:39:52.650Z,26.57
2023-05-10T10:40:52.705Z,26.56
2023-05-10T10:41:52.756Z,26.57
2023-05-10T10:42:52.808Z,26.57
2023-05-10T10:43:52.863Z,26.54
2023-05-10T10:44:52.923Z,26.57
2023-05-10T10:45:53.001Z,26.54
2023-05-10T10:46:53.103Z,26.54
2023-05-10T10:47:53.136Z,26.57
2023-05-10T10:48:53.177Z,26.56
2023-05-10T10:49:53.247Z,26.56
2023-05-10T10:50:53.316Z,26.56
2023-05-10T10:51:53.448Z,26.54
2023-05-10T10:52:53.489Z,26.56
2023-05-10T10:53:53.508Z,26.56
2023-05-10T10:54:53.527Z,26.56
2023-05-10T10:55:53.574Z,26.54
2023-05-10T10:56:53.636Z,26.53
2023-05-10T10:57:53.684Z,26.57
2023-05-10T10:58:53.746Z,26.56
2023-05-10T10:59:53.803Z,26.54
2023-05-10T11:00:53.955Z,26.56
2023-05-10T11:01:54.319Z,26.54
2023-05-10T11:02:54.006Z,26.54
2023-05-10T11:03:54.096Z,26.54
2023-05-10T11:04:54.136Z,26.56
2023-05-10T11:05:54.149Z,26.53
2023-05-10T11:06:54.202Z,26.52
2023-05-10T11:07:54.325Z,26.53
2023-05-10T11:08:54.324Z,26.54
2023-05-10T11:09:54.364Z,26.52
2023-05-10T11:10:54.433Z,26.50
2023-05-10T11:11:54.463Z,26.53
2023-05-10T11:12:54.465Z,26.54
2023-05-10T11:13:54.492Z,26.52
2023-05-10T11:14:54.528Z,26.53
2023-05-10T11:15:54.593Z,26.54
2023-05-10T11:16:54.647Z,26.53
2023-05-10T11:17:54.704Z,26.56
2023-05-10T11:18:54.702Z,26.52
2023-05-10T11:19:54.722Z,26.52
2023-05-10T11:20:54.769Z,26.52
2023-05-10T11:21:54.788Z,26.52
2023-05-10T11:22:54.835Z,26.49
2023-05-10T11:23:54.895Z,26.53
2023-05-10T11:24:55.090Z,26.50
2023-05-10T11:25:54.984Z,26.53
2023-05-10T11:26:55.022Z,26.50
2023-05-10T11:27:55.057Z,26.50
2023-05-10T11:28:55.099Z,26.50
2023-05-10T11:29:55.164Z,26.52
2023-05-10T11:30:55.212Z,26.52
2023-05-10T11:31:55.253Z,26.52
2023-05-10T11:32:55.339Z,26.49
2023-05-10T11:33:55.327Z,26.52
2023-05-10T11:34:55.383Z,26.53
2023-05-10T11:35:55.453Z,26.52
2023-05-10T11:36:55.485Z,26.50
2023-05-10T11:37:55.551Z,26.52
2023-05-10T11:38:55.593Z,26.50
2023-05-10T11:39:55.629Z,26.49
2023-05-10T11:40:55.695Z,26.52
2023-05-10T11:41:55.725Z,26.50
2023-05-10T11:42:55.758Z,26.49
2023-05-10T11:43:55.813Z,26.49
2023-05-10T11:44:55.850Z,26.49
2023-05-10T11:45:55.955Z,26.50
2023-05-10T11:46:55.920Z,26.49
2023-05-10T11:47:56.003Z,26.49
2023-05-10T11:48:55.967Z,26.49
2023-05-10T11:49:56.089Z,26.50
2023-05-10T11:50:56.023Z,26.50
2023-05-10T11:51:56.049Z,26.49
2023-05-10T11:52:56.099Z,26.49
2023-05-10T11:53:56.171Z,26.49
2023-05-10T11:54:56.186Z,26.47
2023-05-10T11:55:56.171Z,26.47
2023-05-10T11:56:56.174Z,26.50
2023-05-10T11:57:56.186Z,26.49
2023-05-10T11:58:56.205Z,26.47
2023-05-10T11:59:56.243Z,26.49
2023-05-10T12:00:56.290Z,26.49
2023-05-10T12:01:56.257Z,26.47
2023-05-10T12:02:56.368Z,26.47
2023-05-10T12:03:57.004Z,26.46
2023-05-10T12:04:56.884Z,26.49
2023-05-10T12:05:56.275Z,26.47
2023-05-10T12:06:56.315Z,26.49
2023-05-10T12:07:56.339Z,26.46
2023-05-10T12:08:56.361Z,26.46
2023-05-10T12:09:56.365Z,26.45
2023-05-10T12:10:56.859Z,26.49
2023-05-10T12:11:56.430Z,26.46
2023-05-10T12:12:56.441Z,26.45
2023-05-10T12:13:56.459Z,26.47
2023-05-10T12:14:56.459Z,26.45
2023-05-10T12:15:56.516Z,26.46
2023-05-10T12:16:56.565Z,26.45
2023-05-10T12:17:56.493Z,26.45
2023-05-10T12:18:56.548Z,26.46
2023-05-10T12:19:56.498Z,26.45
2023-05-10T12:20:56.509Z,26.46
2023-05-10T12:21:56.511Z,26.45
2023-05-10T12:22:57.810Z,26.43
2023-05-10T12:23:56.494Z,26.46
2023-05-10T12:24:56.495Z,26.45
2023-05-10T12:25:56.477Z,26.45
2023-05-10T12:26:56.490Z,26.45
2023-05-10T12:27:56.464Z,26.43
2023-05-10T12:28:56.461Z,26.40
2023-05-10T12:29:56.469Z,26.35
2023-05-10T12:30:56.482Z,26.32
2023-05-10T12:31:56.512Z,26.34
2023-05-10T12:32:56.957Z,26.34
2023-05-10T12:33:56.472Z,26.32
2023-05-10T12:34:56.478Z,26.34
2023-05-10T12:35:56.403Z,26.31
2023-05-10T12:36:56.409Z,26.29
2023-05-10T12:37:57.359Z,26.31
2023-05-10T12:38:56.411Z,26.28
2023-05-10T12:39:56.392Z,26.29
2023-05-10T12:40:56.405Z,26.29
2023-05-10T12:41:56.866Z,26.29
2023-05-10T12:42:56.442Z,26.31
2023-05-10T12:43:56.370Z,26.32
2023-05-10T12:44:56.440Z,26.31
2023-05-10T12:45:56.418Z,26.31
2023-05-10T12:46:56.353Z,26.31
2023-05-10T12:47:56.410Z,26.32
2023-05-10T12:49:07.720Z,26.31
2023-05-10T12:49:57.327Z,26.31
2023-05-10T12:50:56.303Z,26.31
2023-05-10T12:51:56.292Z,26.32
2023-05-10T12:52:56.280Z,26.32